Time;durP1;ratioP1;P1;durP2;ratioP2;P2;SDS_P1;SDS_P2;PMS_P1;PMS_P2;Temp;Humidity;BMP_temperature;BMP_pressure;BME280_temperature;BME280_humidity;BME280_pressure;Samples;Min_cycle;Max_cycle;Signal;HPM_P1;HPM_P2
2022/04/05 00:00:27;;;;;;;12.80;3.00;;;7.40;99.90;;;;;;5031758;28;20052;-72
2022/04/05 00:02:52;;;;;;;9.88;2.28;;;7.40;99.90;;;;;;5030869;28;20160;-72
2022/04/05 00:05:18;;;;;;;12.88;2.88;;;7.40;99.90;;;;;;5031785;28;20478;-72
2022/04/05 00:07:44;;;;;;;7.80;2.55;;;7.40;99.90;;;;;;5031697;28;20033;-72
2022/04/05 00:10:10;;;;;;;12.18;3.08;;;7.40;99.90;;;;;;5031680;28;20427;-72
2022/04/05 00:12:35;;;;;;;8.20;2.30;;;7.40;99.90;;;;;;5031842;28;20047;-72
2022/04/05 00:15:01;;;;;;;8.57;2.72;;;7.40;99.90;;;;;;5030577;28;20521;-72
2022/04/05 00:17:26;;;;;;;15.20;2.50;;;7.40;99.90;;;;;;5031835;28;20100;-72
2022/04/05 00:19:52;;;;;;;9.20;2.38;;;7.40;99.90;;;;;;5031621;28;20037;-73
2022/04/05 00:22:17;;;;;;;10.70;2.30;;;7.40;99.90;;;;;;5032284;28;20033;-72
2022/04/05 00:24:43;;;;;;;12.63;2.95;;;7.30;99.90;;;;;;5034549;28;20037;-72
2022/04/05 00:27:08;;;;;;;13.38;2.58;;;7.40;99.90;;;;;;5035685;28;20116;-72
2022/04/05 00:29:34;;;;;;;8.90;1.98;;;7.30;99.90;;;;;;5035866;28;20041;-72
2022/04/05 00:31:59;;;;;;;12.32;2.35;;;7.30;99.90;;;;;;5035438;28;20075;-72
2022/04/05 00:34:25;;;;;;;10.88;2.42;;;7.30;99.90;;;;;;5035707;28;20037;-72
2022/04/05 00:36:54;;;;;;;8.38;2.00;;;7.30;99.90;;;;;;5035504;28;20057;-72
2022/04/05 00:39:21;;;;;;;10.70;2.20;;;7.30;99.90;;;;;;5035731;28;20116;-72
2022/04/05 00:41:48;;;;;;;12.85;2.67;;;7.30;99.90;;;;;;5035293;28;20408;-72
2022/04/05 00:44:14;;;;;;;7.40;1.88;;;7.30;99.90;;;;;;5035615;28;20045;-72
2022/04/05 00:46:39;;;;;;;12.75;2.22;;;7.30;99.90;;;;;;5035434;28;20038;-72
2022/04/05 00:49:05;;;;;;;13.95;2.50;;;7.30;99.90;;;;;;5035364;28;20498;-72
2022/04/05 00:51:31;;;;;;;11.70;2.35;;;7.30;99.90;;;;;;5034951;28;20038;-72
2022/04/05 00:54:06;;;;;;;8.38;2.05;;;7.30;99.90;;;;;;5035480;28;20040;-72
2022/04/05 00:56:35;;;;;;;10.85;2.53;;;7.30;99.90;;;;;;5035252;28;20482;-72
2022/04/05 00:59:02;;;;;;;8.57;2.20;;;7.30;99.90;;;;;;5033915;28;20487;-72
2022/04/05 01:01:28;;;;;;;10.13;2.20;;;7.20;99.90;;;;;;5035266;28;20128;-71
2022/04/05 01:03:54;;;;;;;15.68;3.45;;;7.20;99.90;;;;;;5033781;28;20045;-72
2022/04/05 01:06:25;;;;;;;9.82;2.33;;;7.20;99.90;;;;;;5035215;28;20139;-72
2022/04/05 01:08:50;;;;;;;13.98;2.38;;;7.20;99.90;;;;;;5033979;28;20037;-72
2022/04/05 01:11:16;;;;;;;11.73;2.28;;;7.20;99.90;;;;;;5034776;28;20037;-72
2022/04/05 01:13:43;;;;;;;7.95;1.77;;;7.20;99.90;;;;;;5034928;28;20043;-72
2022/04/05 01:16:10;;;;;;;11.18;2.85;;;7.20;99.90;;;;;;5035016;28;20041;-72
2022/04/05 01:18:36;;;;;;;14.30;2.15;;;7.20;99.90;;;;;;5034768;28;20069;-72
2022/04/05 01:21:02;;;;;;;16.05;2.35;;;7.20;99.90;;;;;;5033259;28;20073;-72
2022/04/05 01:23:28;;;;;;;9.30;1.70;;;7.20;99.90;;;;;;5034524;28;20087;-72
2022/04/05 01:25:53;;;;;;;9.90;1.95;;;7.20;99.90;;;;;;5034719;28;20041;-72
2022/04/05 01:28:20;;;;;;;13.00;2.05;;;7.20;99.90;;;;;;5033391;28;20037;-72
2022/04/05 01:30:46;;;;;;;10.68;2.90;;;7.20;99.90;;;;;;5034359;28;20052;-72
2022/04/05 01:33:11;;;;;;;9.45;2.20;;;7.20;99.90;;;;;;5034228;28;20041;-72
2022/04/05 01:35:39;;;;;;;11.68;2.35;;;7.20;99.90;;;;;;5034045;28;20120;-72
2022/04/05 01:38:06;;;;;;;14.48;3.22;;;7.20;99.90;;;;;;5033184;28;20060;-72
2022/04/05 01:40:32;;;;;;;13.52;2.50;;;7.20;99.90;;;;;;5034270;28;20052;-72
2022/04/05 01:42:57;;;;;;;14.93;3.30;;;7.10;99.90;;;;;;5034475;28;20641;-72
2022/04/05 01:45:23;;;;;;;13.77;2.97;;;7.10;99.90;;;;;;5034301;28;20095;-72
2022/04/05 01:47:48;;;;;;;11.88;2.65;;;7.10;99.90;;;;;;5034300;28;20046;-72
2022/04/05 01:50:14;;;;;;;14.57;3.47;;;7.10;99.90;;;;;;5034227;28;20040;-72
2022/04/05 01:52:39;;;;;;;11.52;2.83;;;7.20;99.90;;;;;;5034273;28;20499;-72
2022/04/05 01:55:06;;;;;;;22.52;4.93;;;7.10;99.90;;;;;;5034134;28;20045;-72
2022/04/05 01:57:32;;;;;;;10.95;2.45;;;7.10;99.90;;;;;;5032854;28;20467;-72
2022/04/05 01:59:58;;;;;;;17.90;3.33;;;7.10;99.90;;;;;;5033875;28;20076;-72
2022/04/05 02:02:24;;;;;;;16.92;2.50;;;7.10;99.90;;;;;;5033890;28;20044;-72
2022/04/05 02:04:49;;;;;;;14.43;2.50;;;7.00;99.90;;;;;;5033990;28;20087;-72
2022/04/05 02:07:17;;;;;;;11.98;2.22;;;7.00;99.90;;;;;;5034031;28;20049;-72
2022/04/05 02:09:44;;;;;;;14.48;2.25;;;7.00;99.90;;;;;;5034021;28;20061;-72
2022/04/05 02:12:10;;;;;;;11.82;2.30;;;7.00;99.90;;;;;;5033556;28;20546;-72
2022/04/05 02:14:37;;;;;;;8.82;2.17;;;7.00;99.90;;;;;;5033802;28;20069;-72
2022/04/05 02:17:04;;;;;;;19.48;2.55;;;6.90;99.90;;;;;;5034027;28;20483;-72
2022/04/05 02:19:30;;;;;;;12.07;2.25;;;6.90;99.90;;;;;;5033962;28;20041;-72
2022/04/05 02:21:55;;;;;;;15.40;3.78;;;6.90;99.90;;;;;;5033361;28;20128;-72
2022/04/05 02:24:21;;;;;;;11.50;2.75;;;6.90;99.90;;;;;;5032364;28;20142;-72
2022/04/05 02:26:48;;;;;;;16.73;3.50;;;6.90;99.90;;;;;;5033669;28;20072;-71
2022/04/05 02:29:14;;;;;;;11.25;2.15;;;6.90;99.90;;;;;;5033497;28;20041;-71
2022/04/05 02:31:39;;;;;;;18.50;3.47;;;6.90;99.90;;;;;;5031845;28;20111;-71
2022/04/05 02:34:05;;;;;;;17.40;3.20;;;6.90;99.90;;;;;;5032509;28;20048;-71
2022/04/05 02:36:31;;;;;;;17.52;2.40;;;6.80;99.90;;;;;;5032199;28;20729;-71
2022/04/05 02:38:57;;;;;;;14.35;3.03;;;6.90;99.90;;;;;;5033438;28;20159;-71
2022/04/05 02:41:22;;;;;;;14.55;2.78;;;6.90;99.90;;;;;;5033163;28;20041;-71
2022/04/05 02:43:48;;;;;;;10.20;2.78;;;6.90;99.90;;;;;;5033345;28;20052;-71
2022/04/05 02:46:13;;;;;;;20.02;2.97;;;6.90;99.90;;;;;;5033195;28;20406;-71
2022/04/05 02:48:43;;;;;;;15.85;2.63;;;6.90;99.90;;;;;;5033412;28;20538;-71
2022/04/05 02:51:13;;;;;;;23.65;2.78;;;6.90;99.90;;;;;;5032888;28;20037;-71
2022/04/05 02:53:39;;;;;;;13.77;2.95;;;6.90;99.90;;;;;;5033185;28;20037;-71
2022/04/05 02:56:07;;;;;;;15.00;3.35;;;6.90;99.90;;;;;;5033170;28;20041;-71
2022/04/05 02:58:33;;;;;;;19.15;2.60;;;6.90;99.90;;;;;;5032947;28;20046;-71
2022/04/05 03:00:59;;;;;;;10.27;2.35;;;6.90;99.90;;;;;;5032890;28;20076;-72
2022/04/05 03:03:24;;;;;;;20.42;3.05;;;6.90;99.90;;;;;;5033070;28;20077;-71
2022/04/05 03:05:50;;;;;;;14.57;2.53;;;6.80;99.90;;;;;;5031472;28;20542;-71
2022/04/05 03:08:16;;;;;;;16.17;2.72;;;6.80;99.90;;;;;;5031666;28;20033;-71
2022/04/05 03:10:41;;;;;;;19.50;2.85;;;6.80;99.90;;;;;;5032558;28;20038;-71
2022/04/05 03:13:07;;;;;;;14.82;3.53;;;6.90;99.90;;;;;;5032525;28;20038;-71
2022/04/05 03:15:32;;;;;;;17.67;4.25;;;6.80;99.90;;;;;;5032842;28;20380;-71
2022/04/05 03:17:58;;;;;;;14.55;2.58;;;6.80;99.90;;;;;;5032725;28;20061;-71
2022/04/05 03:20:24;;;;;;;13.43;2.90;;;6.80;99.90;;;;;;5032405;28;20183;-71
2022/04/05 03:22:51;;;;;;;13.18;3.28;;;6.80;99.90;;;;;;5031319;28;20075;-71
2022/04/05 03:25:17;;;;;;;18.15;3.10;;;6.80;99.90;;;;;;5027937;28;20063;-71
2022/04/05 03:27:44;;;;;;;13.77;3.15;;;6.80;99.90;;;;;;5032160;28;20124;-71
2022/04/05 03:30:11;;;;;;;21.35;4.03;;;6.90;99.90;;;;;;5032277;28;20160;-71
2022/04/05 03:32:37;;;;;;;18.15;2.78;;;6.80;99.90;;;;;;5032443;28;20120;-71
2022/04/05 03:35:04;;;;;;;18.48;2.65;;;6.80;99.90;;;;;;5032421;28;20116;-71
2022/04/05 03:37:30;;;;;;;13.02;2.80;;;6.80;99.90;;;;;;5032220;28;20053;-71
2022/04/05 03:39:55;;;;;;;18.77;2.92;;;6.80;99.90;;;;;;5031877;28;20046;-72
2022/04/05 03:42:21;;;;;;;12.80;3.03;;;6.70;99.90;;;;;;5032014;28;20038;-71
2022/04/05 03:44:47;;;;;;;27.70;3.83;;;6.80;99.90;;;;;;5032406;28;20128;-71
2022/04/05 03:47:13;;;;;;;19.10;3.95;;;6.80;99.90;;;;;;5032244;28;20037;-71
2022/04/05 03:49:38;;;;;;;10.25;2.65;;;6.80;99.90;;;;;;5032193;28;20036;-71
2022/04/05 03:52:04;;;;;;;21.08;4.32;;;6.70;99.90;;;;;;5031547;28;20067;-71
2022/04/05 03:54:30;;;;;;;15.77;2.78;;;6.70;99.90;;;;;;5031848;28;20033;-71
2022/04/05 03:56:56;;;;;;;16.10;3.72;;;6.80;99.90;;;;;;5030106;28;20053;-71
2022/04/05 03:59:21;;;;;;;12.13;2.42;;;6.70;99.90;;;;;;5032188;28;20095;-71
2022/04/05 04:01:47;;;;;;;14.20;2.83;;;6.70;99.90;;;;;;5031590;28;20033;-71
2022/04/05 04:04:12;;;;;;;10.93;2.13;;;6.80;99.90;;;;;;5031987;28;20029;-71
2022/04/05 04:06:38;;;;;;;17.23;3.50;;;6.70;99.90;;;;;;5031747;28;20111;-71
2022/04/05 04:09:04;;;;;;;15.95;2.20;;;6.70;99.90;;;;;;5031848;28;20140;-71
2022/04/05 04:11:30;;;;;;;18.80;3.33;;;6.70;99.90;;;;;;5031323;28;20052;-71
2022/04/05 04:13:56;;;;;;;20.38;2.92;;;6.70;99.90;;;;;;5031971;28;20041;-71
2022/04/05 04:16:21;;;;;;;17.80;3.45;;;6.70;99.90;;;;;;5030605;28;20545;-71
2022/04/05 04:18:47;;;;;;;20.45;2.30;;;6.70;99.90;;;;;;5031805;28;20145;-71
2022/04/05 04:21:13;;;;;;;16.13;2.65;;;6.70;99.90;;;;;;5031439;28;20069;-71
2022/04/05 04:23:39;;;;;;;11.25;2.85;;;6.70;99.90;;;;;;5054355;22;20041;-77
2022/04/05 04:26:05;;;;;;;17.05;3.00;;;6.70;99.90;;;;;;5013812;28;20049;-77
2022/04/05 04:28:31;;;;;;;16.05;3.28;;;6.70;99.90;;;;;;5012530;28;20168;-77
2022/04/05 04:30:57;;;;;;;18.30;3.42;;;6.70;99.90;;;;;;5013524;28;20084;-77
2022/04/05 04:33:23;;;;;;;15.77;2.95;;;6.70;99.90;;;;;;5013810;28;20383;-77
2022/04/05 04:35:48;;;;;;;19.27;3.30;;;6.70;99.90;;;;;;5014151;28;20049;-77
2022/04/05 04:38:15;;;;;;;17.20;3.42;;;6.70;99.90;;;;;;5013907;28;20133;-77
2022/04/05 04:40:45;;;;;;;13.07;3.38;;;6.70;99.90;;;;;;5013587;28;20048;-77
2022/04/05 04:43:12;;;;;;;13.63;4.00;;;6.70;99.90;;;;;;5013648;28;20434;-77
2022/04/05 04:45:39;;;;;;;15.27;3.78;;;6.60;99.90;;;;;;5013732;28;20049;-77
2022/04/05 04:48:05;;;;;;;16.83;3.20;;;6.60;99.90;;;;;;4997742;28;20037;-77
2022/04/05 04:50:30;;;;;;;13.25;3.22;;;6.60;99.90;;;;;;5013579;28;20649;-77
2022/04/05 04:52:56;;;;;;;18.83;3.70;;;6.60;99.90;;;;;;4997494;28;20042;-77
2022/04/05 04:55:23;;;;;;;14.63;2.60;;;6.70;99.90;;;;;;5013608;28;20073;-77
2022/04/05 04:57:49;;;;;;;18.63;2.92;;;6.60;99.90;;;;;;5013679;28;20108;-77
2022/04/05 05:00:15;;;;;;;15.52;2.70;;;6.60;99.90;;;;;;5013222;28;20683;-77
2022/04/05 05:02:48;;;;;;;16.48;3.22;;;6.60;99.90;;;;;;5013439;28;20087;-77
2022/04/05 05:05:21;;;;;;;13.25;2.97;;;6.60;99.90;;;;;;4997105;28;20073;-77
2022/04/05 05:07:48;;;;;;;17.10;3.42;;;6.60;99.90;;;;;;5013546;28;20033;-77
2022/04/05 05:10:18;;;;;;;24.20;5.18;;;6.60;99.90;;;;;;5017165;28;20068;-77
2022/04/05 05:12:44;;;;;;;20.25;4.38;;;6.60;99.90;;;;;;5017357;28;20124;-77
2022/04/05 05:15:17;;;;;;;20.48;4.03;;;6.60;99.90;;;;;;5017112;28;20124;-76
2022/04/05 05:17:43;;;;;;;15.88;2.75;;;6.60;99.90;;;;;;5017201;28;20136;-77
2022/04/05 05:20:09;;;;;;;19.88;2.78;;;6.60;99.90;;;;;;5000345;28;20038;-77
2022/04/05 05:22:35;;;;;;;17.13;3.28;;;6.60;99.90;;;;;;5017068;28;20427;-76
2022/04/05 05:25:01;;;;;;;18.75;3.17;;;6.60;99.90;;;;;;5000602;28;20041;-77
2022/04/05 05:27:30;;;;;;;14.05;2.50;;;6.60;99.90;;;;;;5016880;28;20038;-77
2022/04/05 05:29:56;;;;;;;14.85;2.88;;;6.60;99.90;;;;;;5016472;28;20053;-77
2022/04/05 05:32:21;;;;;;;14.98;2.35;;;6.70;99.90;;;;;;5016925;28;20041;-76
2022/04/05 05:34:47;;;;;;;22.08;3.47;;;6.70;99.90;;;;;;5000387;28;20038;-77
2022/04/05 05:37:13;;;;;;;20.00;3.22;;;6.70;99.90;;;;;;5016719;28;20099;-77
2022/04/05 05:39:39;;;;;;;16.27;3.08;;;6.70;99.90;;;;;;5016938;28;20095;-77
2022/04/05 05:42:06;;;;;;;16.02;3.33;;;6.70;99.90;;;;;;5016253;28;20045;-77
2022/04/05 05:44:32;;;;;;;18.40;3.15;;;6.70;99.90;;;;;;5000228;28;20037;-76
2022/04/05 05:46:57;;;;;;;17.05;2.97;;;6.70;99.90;;;;;;5016986;28;20498;-77
2022/04/05 05:49:23;;;;;;;14.95;3.10;;;6.70;99.90;;;;;;5016472;28;20136;-77
2022/04/05 05:51:49;;;;;;;18.92;3.45;;;6.80;99.90;;;;;;5016283;28;20041;-77
2022/04/05 05:54:15;;;;;;;22.40;3.35;;;6.80;99.90;;;;;;5017414;28;20507;-78
2022/04/05 05:56:41;;;;;;;14.40;2.55;;;6.80;99.90;;;;;;5018876;28;20502;-79
2022/04/05 05:59:07;;;;;;;17.73;2.97;;;6.80;99.90;;;;;;5000604;28;20558;-77
2022/04/05 06:01:32;;;;;;;21.83;4.20;;;6.90;99.90;;;;;;5015968;28;20216;-77
2022/04/05 06:03:58;;;;;;;21.42;4.63;;;6.90;99.90;;;;;;5016179;28;20045;-77
2022/04/05 06:06:23;;;;;;;17.88;3.55;;;6.90;99.90;;;;;;5016147;28;20045;-77
2022/04/05 06:08:49;;;;;;;19.77;3.67;;;6.90;99.90;;;;;;4999963;28;20282;-77
2022/04/05 06:11:15;;;;;;;12.82;3.10;;;6.90;99.90;;;;;;5015543;28;20047;-77
2022/04/05 06:13:41;;;;;;;22.92;3.08;;;7.00;99.90;;;;;;5015951;28;20049;-77
2022/04/05 06:16:09;;;;;;;21.27;3.45;;;7.00;99.90;;;;;;5015977;28;20037;-76
2022/04/05 06:18:35;;;;;;;15.20;2.90;;;7.00;99.90;;;;;;5015775;28;20604;-77
2022/04/05 06:21:01;;;;;;;19.33;2.95;;;7.00;99.90;;;;;;5015331;28;20088;-77
2022/04/05 06:23:26;;;;;;;13.45;3.35;;;7.10;99.90;;;;;;5015723;28;20503;-77
2022/04/05 06:25:52;;;;;;;19.30;4.72;;;7.10;99.90;;;;;;5015938;28;20511;-75
2022/04/05 06:28:18;;;;;;;13.63;3.40;;;7.10;99.90;;;;;;5016320;28;20037;-78
2022/04/05 06:30:46;;;;;;;12.43;3.13;;;7.20;99.90;;;;;;5015759;28;20073;-77
2022/04/05 06:33:18;;;;;;;15.50;3.10;;;7.20;99.90;;;;;;5016313;28;20048;-77
2022/04/05 06:35:45;;;;;;;17.67;3.08;;;7.20;99.90;;;;;;5000798;28;20073;-78
2022/04/05 06:38:12;;;;;;;14.90;3.28;;;7.20;99.90;;;;;;5016948;28;20045;-78
2022/04/05 06:40:38;;;;;;;16.23;3.42;;;7.20;99.90;;;;;;5016600;28;20084;-77
2022/04/05 06:43:04;;;;;;;18.33;4.00;;;7.20;99.90;;;;;;5016277;28;20045;-77
2022/04/05 06:45:30;;;;;;;19.13;3.40;;;7.30;99.90;;;;;;5016015;28;20037;-77
2022/04/05 06:47:56;;;;;;;15.73;3.60;;;7.30;99.90;;;;;;5015644;28;20041;-78
2022/04/05 06:50:24;;;;;;;15.75;4.28;;;7.40;99.90;;;;;;4998799;28;20040;-78
2022/04/05 06:52:51;;;;;;;12.60;3.22;;;7.30;99.90;;;;;;4999013;28;20040;-77
2022/04/05 06:55:17;;;;;;;16.08;3.55;;;7.40;99.90;;;;;;4999148;28;20038;-78
2022/04/05 06:57:43;;;;;;;12.40;3.20;;;7.40;99.90;;;;;;5015549;28;20060;-78
2022/04/05 07:00:11;;;;;;;14.13;3.80;;;7.40;99.90;;;;;;5014819;28;20098;-77
2022/04/05 07:02:37;;;;;;;20.25;4.60;;;7.40;99.90;;;;;;5015434;28;20116;-77
2022/04/05 07:05:04;;;;;;;13.98;2.40;;;7.50;99.90;;;;;;5015294;28;20038;-77
2022/04/05 07:07:30;;;;;;;20.02;3.25;;;7.50;99.90;;;;;;4998645;28;20049;-78
2022/04/05 07:09:56;;;;;;;13.57;2.55;;;7.60;99.90;;;;;;5014969;28;20045;-79
2022/04/05 07:12:23;;;;;;;10.52;2.92;;;7.60;99.90;;;;;;5015085;28;20406;-78
2022/04/05 07:14:49;;;;;;;12.60;2.78;;;7.70;99.90;;;;;;5015484;28;20033;-79
2022/04/05 07:17:14;;;;;;;12.55;3.05;;;7.70;99.90;;;;;;5015525;28;20129;-78
2022/04/05 07:19:40;;;;;;;13.13;3.60;;;7.80;99.90;;;;;;4999918;28;20044;-80
2022/04/05 07:22:06;;;;;;;11.80;2.42;;;7.80;99.90;;;;;;5014455;28;20041;-78
2022/04/05 07:24:31;;;;;;;14.32;2.85;;;7.80;99.90;;;;;;5015417;28;20046;-79
2022/04/05 07:26:58;;;;;;;14.70;2.53;;;7.80;99.90;;;;;;5015139;28;20080;-78
2022/04/05 07:29:24;;;;;;;11.90;2.65;;;7.90;99.90;;;;;;5015050;28;20048;-78
2022/04/05 07:31:49;;;;;;;17.00;3.97;;;7.90;99.90;;;;;;5013523;28;20033;-78
2022/04/05 07:34:15;;;;;;;16.90;3.65;;;7.90;99.90;;;;;;5014927;28;20140;-78
2022/04/05 07:36:41;;;;;;;12.40;2.97;;;7.90;99.90;;;;;;5015095;28;20132;-79
2022/04/05 07:39:06;;;;;;;21.00;3.95;;;7.90;99.90;;;;;;4998579;28;20033;-79
2022/04/05 07:41:32;;;;;;;12.32;3.08;;;7.90;99.90;;;;;;4998355;28;20042;-79
2022/04/05 07:43:58;;;;;;;13.35;3.45;;;7.90;99.90;;;;;;5015827;28;20049;-80
2022/04/05 07:46:23;;;;;;;12.82;3.40;;;7.90;99.90;;;;;;4999440;28;20056;-77
2022/04/05 07:48:49;;;;;;;11.80;3.85;;;7.90;99.90;;;;;;5015433;28;20044;-78
2022/04/05 07:51:17;;;;;;;17.15;4.03;;;7.90;99.90;;;;;;5014279;28;20030;-77
2022/04/05 07:53:43;;;;;;;7.68;3.05;;;7.80;99.90;;;;;;4997853;28;20119;-74
2022/04/05 07:56:12;;;;;;;12.70;4.05;;;7.90;99.90;;;;;;5032067;28;20526;-77
2022/04/05 07:58:39;;;;;;;12.55;4.30;;;7.90;99.90;;;;;;5014284;28;20400;-78
2022/04/05 08:01:05;;;;;;;13.30;4.13;;;7.90;99.90;;;;;;5013999;28;20059;-78
2022/04/05 08:03:30;;;;;;;13.75;3.22;;;7.90;99.90;;;;;;5014284;28;20132;-78
2022/04/05 08:05:56;;;;;;;15.18;4.35;;;7.90;99.90;;;;;;5014262;28;20406;-77
2022/04/05 08:08:22;;;;;;;14.10;3.10;;;7.90;99.90;;;;;;5014917;28;20491;-78
2022/04/05 08:10:48;;;;;;;11.30;3.95;;;8.00;99.90;;;;;;4998261;28;20107;-78
2022/04/05 08:13:13;;;;;;;12.55;3.83;;;7.90;99.90;;;;;;5014639;28;20048;-78
2022/04/05 08:15:43;;;;;;;12.65;3.03;;;8.00;99.90;;;;;;5014957;28;20077;-77
2022/04/05 08:18:09;;;;;;;7.90;3.83;;;8.00;99.90;;;;;;5014863;28;20064;-80
2022/04/05 08:20:36;;;;;;;13.25;2.80;;;8.00;99.90;;;;;;5017324;28;20108;-79
2022/04/05 08:23:03;;;;;;;12.52;3.28;;;8.00;99.90;;;;;;5016625;28;20415;-80
2022/04/05 08:25:29;;;;;;;16.05;3.65;;;8.00;99.90;;;;;;5017670;28;20037;-80
2022/04/05 08:27:55;;;;;;;13.45;4.35;;;8.00;99.90;;;;;;5037402;28;20026;-79
2022/04/05 08:30:21;;;;;;;10.43;3.28;;;8.00;99.90;;;;;;5038108;28;20067;-79
2022/04/05 08:32:47;;;;;;;7.38;2.33;;;8.00;99.90;;;;;;5037590;28;20040;-79
2022/04/05 08:35:15;;;;;;;8.25;3.13;;;8.00;99.90;;;;;;5022741;28;20033;-79
2022/04/05 08:37:42;;;;;;;9.73;2.60;;;8.00;99.90;;;;;;5006313;28;20568;-79
2022/04/05 08:40:09;;;;;;;10.77;2.65;;;8.00;99.90;;;;;;5025756;28;20049;-79
2022/04/05 08:42:36;;;;;;;13.65;3.00;;;7.90;99.90;;;;;;5025899;28;20045;-79
2022/04/05 08:45:04;;;;;;;16.40;3.08;;;8.00;99.90;;;;;;5012411;28;20072;-80
2022/04/05 08:47:30;;;;;;;13.82;2.90;;;8.00;99.90;;;;;;5008923;28;20491;-79
2022/04/05 08:49:57;;;;;;;14.70;3.35;;;8.00;99.90;;;;;;5023195;28;20067;-81
2022/04/05 08:52:23;;;;;;;13.38;2.90;;;8.10;99.90;;;;;;5021567;28;20033;-80
2022/04/05 08:54:48;;;;;;;13.55;3.03;;;8.10;99.90;;;;;;5020745;28;20045;-81
2022/04/05 08:57:14;;;;;;;9.00;3.05;;;8.10;99.90;;;;;;5020896;28;20045;-79
2022/04/05 08:59:40;;;;;;;14.73;3.15;;;8.10;99.90;;;;;;5006374;28;20091;-80
2022/04/05 09:02:05;;;;;;;13.52;3.28;;;8.10;99.90;;;;;;5022681;28;20084;-78
2022/04/05 09:04:34;;;;;;;12.35;3.78;;;8.20;99.90;;;;;;5006977;28;20076;-80
2022/04/05 09:07:21;;;;;;;11.20;4.18;;;8.20;99.90;;;;;;5024895;28;20483;-79
2022/04/05 09:10:10;;;;;;;12.35;2.83;;;8.20;99.90;;;;;;5024462;28;20041;-79
2022/04/05 09:12:46;;;;;;;12.60;3.78;;;8.20;99.90;;;;;;5023973;28;20053;-78
2022/04/05 09:15:21;;;;;;;16.17;4.55;;;8.30;99.90;;;;;;5022548;28;20041;-80
2022/04/05 09:17:48;;;;;;;13.98;3.67;;;8.40;99.90;;;;;;5024273;28;20049;-79
2022/04/05 09:20:16;;;;;;;13.60;3.90;;;8.50;99.90;;;;;;5006134;28;20076;-80
2022/04/05 09:22:41;;;;;;;12.50;4.45;;;8.50;99.90;;;;;;5025668;28;20063;-81
2022/04/05 09:25:12;;;;;;;13.07;4.55;;;8.60;99.90;;;;;;5019789;28;20038;-79
2022/04/05 09:27:46;;;;;;;9.68;3.42;;;8.60;99.90;;;;;;5018948;28;20037;-78
2022/04/05 09:30:16;;;;;;;12.23;3.97;;;8.70;99.90;;;;;;5016699;28;20178;-79
2022/04/05 09:32:47;;;;;;;16.25;3.55;;;8.70;99.90;;;;;;5016969;28;20093;-80
2022/04/05 09:35:14;;;;;;;14.05;3.53;;;8.80;99.90;;;;;;5002071;28;20037;-80
2022/04/05 09:37:39;;;;;;;10.52;2.78;;;8.80;99.90;;;;;;5017296;28;20053;-79
2022/04/05 09:40:34;;;;;;;8.15;3.13;;;9.00;99.90;;;;;;5016720;28;20048;-79
2022/04/05 09:43:07;;;;;;;8.43;2.22;;;9.00;99.90;;;;;;5017097;28;20045;-79
2022/04/05 09:46:01;;;;;;;5.63;1.98;;;9.10;99.90;;;;;;5016830;28;20068;-78
2022/04/05 09:48:32;;;;;;;6.07;1.83;;;9.10;99.90;;;;;;5017156;28;20033;-79
2022/04/05 09:51:10;;;;;;;6.03;2.45;;;9.00;99.90;;;;;;5016320;28;20041;-78
2022/04/05 09:53:39;;;;;;;11.43;2.80;;;9.00;99.90;;;;;;5016652;28;20052;-79
2022/04/05 09:56:20;;;;;;;5.60;1.88;;;9.00;99.90;;;;;;4999901;28;20191;-78
2022/04/05 09:58:54;;;;;;;3.92;1.70;;;8.90;99.90;;;;;;5016582;28;20045;-76
2022/04/05 10:01:25;;;;;;;6.25;1.80;;;8.90;99.90;;;;;;5016531;28;20399;-79
2022/04/05 10:04:09;;;;;;;4.88;2.40;;;8.90;99.90;;;;;;5000445;28;20445;-79
2022/04/05 10:06:38;;;;;;;6.55;2.55;;;8.90;99.90;;;;;;5034519;28;20041;-81
2022/04/05 10:09:05;;;;;;;5.90;2.25;;;8.90;99.90;;;;;;5000368;28;20529;-79
2022/04/05 10:11:32;;;;;;;6.60;2.20;;;9.00;99.90;;;;;;5016940;28;20120;-80
2022/04/05 10:13:59;;;;;;;7.57;2.15;;;9.00;99.90;;;;;;5002435;28;20037;-80
2022/04/05 10:16:27;;;;;;;10.43;2.15;;;8.90;99.90;;;;;;5016991;28;20041;-79
2022/04/05 10:18:57;;;;;;;5.82;2.70;;;9.00;99.90;;;;;;5015881;28;20079;-76
2022/04/05 10:21:25;;;;;;;9.02;2.17;;;9.00;99.90;;;;;;5032625;28;20142;-79
2022/04/05 10:23:54;;;;;;;4.90;2.28;;;9.10;99.90;;;;;;5029157;23;20044;-69
2022/04/05 10:26:24;;;;;;;7.47;2.22;;;9.00;99.90;;;;;;5053164;28;20421;-69
2022/04/05 10:28:51;;;;;;;4.53;2.40;;;9.00;99.90;;;;;;5050690;28;20491;-68
2022/04/05 10:31:42;;;;;;;4.38;3.40;;;9.00;99.90;;;;;;5053120;28;20040;-69
2022/04/05 10:34:22;;;;;;;4.32;2.33;;;9.00;99.90;;;;;;5052758;28;20045;-69
2022/04/05 10:37:13;;;;;;;6.88;2.70;;;8.90;99.90;;;;;;5053439;28;20159;-69
2022/04/05 10:39:39;;;;;;;5.43;2.47;;;9.00;99.90;;;;;;5051947;28;20076;-69
2022/04/05 10:42:08;;;;;;;4.53;2.53;;;9.00;99.90;;;;;;5052722;28;20482;-70
2022/04/05 10:44:34;;;;;;;11.65;3.03;;;9.00;99.90;;;;;;5053276;28;20041;-69
2022/04/05 10:47:03;;;;;;;7.00;3.10;;;9.00;99.90;;;;;;5053121;28;20041;-69
2022/04/05 10:49:43;;;;;;;4.85;2.80;;;9.00;99.90;;;;;;5053107;28;20032;-69
2022/04/05 10:52:15;;;;;;;6.57;2.83;;;9.10;99.90;;;;;;5051642;28;20044;-69
2022/04/05 10:54:44;;;;;;;9.07;2.60;;;9.10;99.90;;;;;;5051881;28;20123;-68
2022/04/05 10:57:17;;;;;;;7.72;3.03;;;9.10;99.90;;;;;;5048588;28;20122;-69
2022/04/05 10:59:47;;;;;;;3.87;3.27;;;9.10;99.90;;;;;;5049035;28;20071;-69
2022/04/05 11:02:28;;;;;;;3.28;2.17;;;9.10;99.90;;;;;;5052070;28;20279;-69
2022/04/05 11:05:19;;;;;;;6.65;2.60;;;9.10;99.90;;;;;;5051927;28;20037;-69
2022/04/05 11:07:54;;;;;;;4.63;2.40;;;9.20;99.90;;;;;;5052669;28;20045;-69
2022/04/05 11:10:30;;;;;;;4.22;1.50;;;9.40;99.90;;;;;;5052131;28;20087;-69
2022/04/05 11:13:07;;;;;;;5.35;2.70;;;9.40;99.90;;;;;;5049777;28;20193;-69
2022/04/05 11:15:53;;;;;;;3.90;2.10;;;9.40;99.90;;;;;;5051853;28;20418;-69
2022/04/05 11:18:24;;;;;;;4.97;1.70;;;9.60;99.90;;;;;;5048078;28;20482;-69
2022/04/05 11:20:54;;;;;;;1.42;1.30;;;9.70;99.90;;;;;;5051537;28;20440;-69
2022/04/05 11:23:38;;;;;;;2.33;1.60;;;9.70;99.90;;;;;;5051100;28;20044;-70
2022/04/05 11:26:36;;;;;;;1.80;1.30;;;9.80;99.90;;;;;;5052066;28;20059;-69
2022/04/05 11:29:17;;;;;;;1.95;1.38;;;9.70;99.90;;;;;;5018600;28;20044;-69
2022/04/05 11:31:43;;;;;;;2.42;1.15;;;9.60;99.90;;;;;;5051840;28;20037;-69
2022/04/05 11:34:35;;;;;;;1.83;1.25;;;9.60;99.90;;;;;;5052003;28;20083;-69
2022/04/05 11:37:01;;;;;;;2.13;1.60;;;9.70;99.90;;;;;;5050994;28;20044;-69
2022/04/05 11:39:27;;;;;;;1.90;1.50;;;9.80;99.90;;;;;;5052173;28;20048;-69
2022/04/05 11:42:00;;;;;;;1.60;1.30;;;9.80;99.90;;;;;;5051428;28;20663;-69
2022/04/05 11:44:26;;;;;;;2.58;1.15;;;9.80;99.90;;;;;;5043993;28;20041;-69
2022/04/05 11:46:54;;;;;;;3.53;1.60;;;9.80;99.90;;;;;;5050283;28;20375;-69
2022/04/05 11:49:20;;;;;;;2.35;1.70;;;9.90;99.90;;;;;;5051134;28;20029;-70
2022/04/05 11:51:48;;;;;;;4.40;1.30;;;10.00;99.90;;;;;;5050045;28;20508;-69
2022/04/05 11:54:17;;;;;;;1.73;1.27;;;10.10;99.90;;;;;;5050460;28;20044;-69
2022/04/05 11:56:44;;;;;;;1.70;1.50;;;10.20;99.90;;;;;;5051788;28;20479;-69
2022/04/05 11:59:17;;;;;;;1.65;1.27;;;10.20;99.90;;;;;;5051490;28;20056;-69
2022/04/05 12:01:48;;;;;;;2.17;1.40;;;10.00;99.90;;;;;;5050283;28;20075;-69
2022/04/05 12:04:18;;;;;;;3.45;1.58;;;10.00;99.90;;;;;;5051625;28;20048;-69
2022/04/05 12:06:46;;;;;;;2.92;1.48;;;10.00;99.90;;;;;;5051312;28;20051;-69
2022/04/05 12:09:14;;;;;;;1.75;1.25;;;9.90;99.90;;;;;;5051575;28;20041;-69
2022/04/05 12:11:42;;;;;;;2.28;1.83;;;9.90;99.90;;;;;;5049736;28;20037;-69
2022/04/05 12:14:13;;;;;;;1.63;1.45;;;10.00;99.90;;;;;;5051657;28;20045;-69
2022/04/05 12:17:00;;;;;;;3.53;1.67;;;10.10;99.90;;;;;;5051634;28;20119;-70
2022/04/05 12:19:34;;;;;;;2.65;1.55;;;10.30;99.90;;;;;;5049773;28;20103;-69
2022/04/05 12:22:01;;;;;;;1.73;1.50;;;10.40;99.90;;;;;;5051031;28;20487;-69
2022/04/05 12:24:28;;;;;;;2.00;1.80;;;10.40;99.90;;;;;;5051297;28;20457;-69
2022/04/05 12:27:01;;;;;;;2.33;1.75;;;10.50;99.90;;;;;;5051590;28;20041;-69
2022/04/05 12:29:28;;;;;;;2.72;1.90;;;10.70;99.90;;;;;;5051307;28;20414;-69
2022/04/05 12:31:54;;;;;;;1.83;1.42;;;10.60;99.90;;;;;;5051059;28;20038;-69
2022/04/05 12:34:20;;;;;;;2.65;1.92;;;10.60;99.90;;;;;;5051150;28;20108;-69
2022/04/05 12:37:02;;;;;;;2.70;1.83;;;10.60;99.90;;;;;;5050086;28;20411;-69
2022/04/05 12:39:33;;;;;;;2.45;1.85;;;10.70;99.90;;;;;;5051285;28;20166;-69
2022/04/05 12:42:09;;;;;;;2.20;1.67;;;10.60;99.90;;;;;;5051161;28;20091;-69
2022/04/05 12:44:37;;;;;;;2.47;1.75;;;10.50;99.90;;;;;;5050081;28;20033;-69
2022/04/05 12:47:09;;;;;;;2.95;2.10;;;10.50;99.90;;;;;;5049837;28;20107;-69
2022/04/05 12:49:40;;;;;;;2.30;2.00;;;10.60;99.90;;;;;;5051444;28;20056;-69
2022/04/05 12:52:14;;;;;;;3.28;1.98;;;10.50;99.90;;;;;;5051194;28;20037;-70